Terminal Aerodrome Forecast
Issued by NWS Cleveland, OH

Home | Current Version | Previous Version | Graphics & Text | Print | Product List | Glossary On
Versions: 1 2 3 4 5 6 7 8 9 10 11 12 13 14 15 16 17
187
FTUS41 KCLE 200922 AAB
TAFCAK
TAF AMD
KCAK 200922Z 2009/2106 18005KT 2SM BR SCT002 BKN050
      TEMPO 2009/2012 3/4SM BR BKN002
     FM201300 18010KT P6SM SCT025 BKN050
     FM201700 22015G25KT P6SM BKN050
     FM210000 25015G25KT 5SM -SHRA OVC035
      TEMPO 2100/2103 27020G40KT 2SM TSRA OVC020CB
     FM210500 27012KT P6SM BKN080=

USA.gov is the U.S. government's official web portal to all federal, state and local government web resources and services.